Terminal Aerodrome Forecast
Issued by NWS

Home | Current Version | Previous Version | Text Only | Print | Product List | Glossary On
Versions: 1 2 3 4 5 6 7 8 9 10 11 12 13 14 15 16 17
648
FTUS46 KSEW 251722
TAFPAE
TAF
KPAE 251722Z 2518/2618 VRB04KT P6SM BKN060
     FM252200 16006KT P6SM BKN040
     FM260500 16012KT P6SM -RASN OVC030
     FM261200 16010KT 5SM -RASN BR BKN015 OVC030
      TEMPO 2614/2618 3SM -SN BR OVC012=

USA.gov is the U.S. government's official web portal to all federal, state and local government web resources and services.